sensor_id;sensor_type;location;lat;lon;timestamp;temperature;humidity
20337;DHT22;10326;53.660;10.200;2022-08-01T00:02:20;22.20;83.80
20337;DHT22;10326;53.660;10.200;2022-08-01T00:04:47;22.10;84.00
20337;DHT22;10326;53.660;10.200;2022-08-01T00:07:14;22.10;84.20
20337;DHT22;10326;53.660;10.200;2022-08-01T00:09:41;22.10;84.30
20337;DHT22;10326;53.660;10.200;2022-08-01T00:12:08;22.10;84.90
20337;DHT22;10326;53.660;10.200;2022-08-01T00:14:35;22.10;84.30
20337;DHT22;10326;53.660;10.200;2022-08-01T00:17:03;22.10;84.40
20337;DHT22;10326;53.660;10.200;2022-08-01T00:19:32;22.10;84.50
20337;DHT22;10326;53.660;10.200;2022-08-01T00:21:59;22.10;84.60
20337;DHT22;10326;53.660;10.200;2022-08-01T00:24:26;22.10;84.60
20337;DHT22;10326;53.660;10.200;2022-08-01T00:26:53;22.10;84.70
20337;DHT22;10326;53.660;10.200;2022-08-01T00:29:20;22.10;84.80
20337;DHT22;10326;53.660;10.200;2022-08-01T00:31:47;22.10;84.90
20337;DHT22;10326;53.660;10.200;2022-08-01T00:34:14;22.10;85.00
20337;DHT22;10326;53.660;10.200;2022-08-01T00:36:43;22.10;85.00
20337;DHT22;10326;53.660;10.200;2022-08-01T00:39:10;22.10;85.10
20337;DHT22;10326;53.660;10.200;2022-08-01T00:41:37;22.10;85.00
20337;DHT22;10326;53.660;10.200;2022-08-01T00:44:05;22.10;85.10
20337;DHT22;10326;53.660;10.200;2022-08-01T00:46:32;22.10;85.10
20337;DHT22;10326;53.660;10.200;2022-08-01T00:49:02;22.10;85.00
20337;DHT22;10326;53.660;10.200;2022-08-01T00:51:30;22.20;85.30
20337;DHT22;10326;53.660;10.200;2022-08-01T00:53:59;22.20;85.20
20337;DHT22;10326;53.660;10.200;2022-08-01T00:56:27;22.20;85.30
20337;DHT22;10326;53.660;10.200;2022-08-01T00:58:56;22.20;85.30
20337;DHT22;10326;53.660;10.200;2022-08-01T01:01:23;22.20;85.40
20337;DHT22;10326;53.660;10.200;2022-08-01T01:03:51;22.20;85.40
20337;DHT22;10326;53.660;10.200;2022-08-01T01:06:26;22.20;85.40
20337;DHT22;10326;53.660;10.200;2022-08-01T01:09:02;22.10;85.70
20337;DHT22;10326;53.660;10.200;2022-08-01T01:11:46;22.10;85.60
20337;DHT22;10326;53.660;10.200;2022-08-01T01:14:23;22.10;85.60
20337;DHT22;10326;53.660;10.200;2022-08-01T01:16:54;22.10;85.90
20337;DHT22;10326;53.660;10.200;2022-08-01T01:19:24;22.00;85.80
20337;DHT22;10326;53.660;10.200;2022-08-01T01:22:15;22.00;86.10
20337;DHT22;10326;53.660;10.200;2022-08-01T01:24:58;22.00;86.50
20337;DHT22;10326;53.660;10.200;2022-08-01T01:27:42;22.00;86.90
20337;DHT22;10326;53.660;10.200;2022-08-01T01:30:15;21.90;86.50
20337;DHT22;10326;53.660;10.200;2022-08-01T01:32:44;21.90;86.20
20337;DHT22;10326;53.660;10.200;2022-08-01T01:35:17;21.90;86.40
20337;DHT22;10326;53.660;10.200;2022-08-01T01:37:50;21.80;86.50
20337;DHT22;10326;53.660;10.200;2022-08-01T01:40:25;21.80;86.60
20337;DHT22;10326;53.660;10.200;2022-08-01T01:42:55;21.80;86.70
20337;DHT22;10326;53.660;10.200;2022-08-01T01:45:25;21.70;86.80
20337;DHT22;10326;53.660;10.200;2022-08-01T01:47:53;21.70;87.00
20337;DHT22;10326;53.660;10.200;2022-08-01T01:50:22;21.70;87.10
20337;DHT22;10326;53.660;10.200;2022-08-01T01:52:51;21.70;87.30
20337;DHT22;10326;53.660;10.200;2022-08-01T01:55:22;21.60;87.40
20337;DHT22;10326;53.660;10.200;2022-08-01T01:57:51;21.60;87.60
20337;DHT22;10326;53.660;10.200;2022-08-01T02:00:19;21.60;87.60
20337;DHT22;10326;53.660;10.200;2022-08-01T02:02:48;21.60;87.70
20337;DHT22;10326;53.660;10.200;2022-08-01T02:05:17;21.60;87.90
20337;DHT22;10326;53.660;10.200;2022-08-01T02:07:45;21.60;87.90
20337;DHT22;10326;53.660;10.200;2022-08-01T02:10:16;21.60;87.90
20337;DHT22;10326;53.660;10.200;2022-08-01T02:12:45;21.60;88.20
20337;DHT22;10326;53.660;10.200;2022-08-01T02:15:15;21.60;88.20
20337;DHT22;10326;53.660;10.200;2022-08-01T02:17:48;21.60;88.20
20337;DHT22;10326;53.660;10.200;2022-08-01T02:20:16;21.60;88.40
20337;DHT22;10326;53.660;10.200;2022-08-01T02:22:46;21.60;88.20
20337;DHT22;10326;53.660;10.200;2022-08-01T02:25:22;21.60;88.40
20337;DHT22;10326;53.660;10.200;2022-08-01T02:27:55;21.60;88.60
20337;DHT22;10326;53.660;10.200;2022-08-01T02:30:31;21.60;88.60
20337;DHT22;10326;53.660;10.200;2022-08-01T02:33:05;21.50;88.60
20337;DHT22;10326;53.660;10.200;2022-08-01T02:35:38;21.50;88.70
20337;DHT22;10326;53.660;10.200;2022-08-01T02:38:10;21.50;88.80
20337;DHT22;10326;53.660;10.200;2022-08-01T02:40:43;21.50;88.70
20337;DHT22;10326;53.660;10.200;2022-08-01T02:43:17;21.50;88.70
20337;DHT22;10326;53.660;10.200;2022-08-01T02:45:48;21.50;88.80
20337;DHT22;10326;53.660;10.200;2022-08-01T02:48:21;21.50;88.80
20337;DHT22;10326;53.660;10.200;2022-08-01T02:50:52;21.50;88.80
20337;DHT22;10326;53.660;10.200;2022-08-01T02:53:23;21.50;88.80
20337;DHT22;10326;53.660;10.200;2022-08-01T02:55:52;21.50;88.90
20337;DHT22;10326;53.660;10.200;2022-08-01T02:58:21;21.50;88.90
20337;DHT22;10326;53.660;10.200;2022-08-01T03:00:50;21.50;89.00
20337;DHT22;10326;53.660;10.200;2022-08-01T03:03:18;21.50;89.10
20337;DHT22;10326;53.660;10.200;2022-08-01T03:05:47;21.50;89.10
20337;DHT22;10326;53.660;10.200;2022-08-01T03:08:15;21.60;89.20
20337;DHT22;10326;53.660;10.200;2022-08-01T03:10:45;21.60;89.20
20337;DHT22;10326;53.660;10.200;2022-08-01T03:13:14;21.60;89.20
20337;DHT22;10326;53.660;10.200;2022-08-01T03:15:43;21.60;89.10
20337;DHT22;10326;53.660;10.200;2022-08-01T03:18:11;21.60;89.00
20337;DHT22;10326;53.660;10.200;2022-08-01T03:20:41;21.70;89.10
20337;DHT22;10326;53.660;10.200;2022-08-01T03:23:11;21.70;89.10
20337;DHT22;10326;53.660;10.200;2022-08-01T03:25:40;21.70;89.00
20337;DHT22;10326;53.660;10.200;2022-08-01T03:28:10;21.70;89.00
20337;DHT22;10326;53.660;10.200;2022-08-01T03:30:39;21.70;89.00
20337;DHT22;10326;53.660;10.200;2022-08-01T03:33:07;21.70;89.10
20337;DHT22;10326;53.660;10.200;2022-08-01T03:35:38;21.70;89.00
20337;DHT22;10326;53.660;10.200;2022-08-01T03:38:10;21.70;89.20
20337;DHT22;10326;53.660;10.200;2022-08-01T03:40:43;21.70;89.20
20337;DHT22;10326;53.660;10.200;2022-08-01T03:43:22;21.60;89.10
20337;DHT22;10326;53.660;10.200;2022-08-01T03:45:55;21.60;89.10
20337;DHT22;10326;53.660;10.200;2022-08-01T03:48:28;21.60;89.10
20337;DHT22;10326;53.660;10.200;2022-08-01T03:51:01;21.60;89.20
20337;DHT22;10326;53.660;10.200;2022-08-01T03:53:31;21.60;89.80
20337;DHT22;10326;53.660;10.200;2022-08-01T03:56:01;21.70;89.40
20337;DHT22;10326;53.660;10.200;2022-08-01T03:58:29;21.60;89.40
20337;DHT22;10326;53.660;10.200;2022-08-01T04:00:57;21.70;89.40
20337;DHT22;10326;53.660;10.200;2022-08-01T04:03:25;21.70;89.40
20337;DHT22;10326;53.660;10.200;2022-08-01T04:05:52;21.70;89.40
20337;DHT22;10326;53.660;10.200;2022-08-01T04:08:20;21.70;89.30
20337;DHT22;10326;53.660;10.200;2022-08-01T04:10:48;21.70;89.30
20337;DHT22;10326;53.660;10.200;2022-08-01T04:13:15;21.70;89.30
20337;DHT22;10326;53.660;10.200;2022-08-01T04:15:42;21.70;89.30
20337;DHT22;10326;53.660;10.200;2022-08-01T04:18:09;21.70;89.30
20337;DHT22;10326;53.660;10.200;2022-08-01T04:20:36;21.70;89.30
20337;DHT22;10326;53.660;10.200;2022-08-01T04:23:03;21.70;89.30
20337;DHT22;10326;53.660;10.200;2022-08-01T04:25:33;21.70;89.20
20337;DHT22;10326;53.660;10.200;2022-08-01T04:28:02;21.70;89.30
20337;DHT22;10326;53.660;10.200;2022-08-01T04:30:33;21.70;89.20
20337;DHT22;10326;53.660;10.200;2022-08-01T04:33:04;21.70;89.30
20337;DHT22;10326;53.660;10.200;2022-08-01T04:35:33;21.70;89.20
20337;DHT22;10326;53.660;10.200;2022-08-01T04:38:01;21.70;89.20
20337;DHT22;10326;53.660;10.200;2022-08-01T04:40:29;21.70;89.20
20337;DHT22;10326;53.660;10.200;2022-08-01T04:42:58;21.70;89.20
20337;DHT22;10326;53.660;10.200;2022-08-01T04:45:26;21.70;89.20
20337;DHT22;10326;53.660;10.200;2022-08-01T04:47:54;21.70;89.10
20337;DHT22;10326;53.660;10.200;2022-08-01T04:50:24;21.70;88.90
20337;DHT22;10326;53.660;10.200;2022-08-01T04:52:51;21.70;88.90
20337;DHT22;10326;53.660;10.200;2022-08-01T04:55:18;21.60;89.00
20337;DHT22;10326;53.660;10.200;2022-08-01T04:57:47;21.60;89.10
20337;DHT22;10326;53.660;10.200;2022-08-01T05:00:15;21.60;89.20
20337;DHT22;10326;53.660;10.200;2022-08-01T05:02:43;21.60;89.30
20337;DHT22;10326;53.660;10.200;2022-08-01T05:05:10;21.60;89.50
20337;DHT22;10326;53.660;10.200;2022-08-01T05:07:37;21.50;89.60
20337;DHT22;10326;53.660;10.200;2022-08-01T05:10:06;21.50;89.60
20337;DHT22;10326;53.660;10.200;2022-08-01T05:12:33;21.50;89.70
20337;DHT22;10326;53.660;10.200;2022-08-01T05:15:03;21.50;89.80
20337;DHT22;10326;53.660;10.200;2022-08-01T05:17:32;21.60;89.80
20337;DHT22;10326;53.660;10.200;2022-08-01T05:20:00;21.60;89.60
20337;DHT22;10326;53.660;10.200;2022-08-01T05:22:27;21.50;89.30
20337;DHT22;10326;53.660;10.200;2022-08-01T05:24:54;21.50;89.40
20337;DHT22;10326;53.660;10.200;2022-08-01T05:27:22;21.50;89.60
20337;DHT22;10326;53.660;10.200;2022-08-01T05:29:49;21.50;89.70
20337;DHT22;10326;53.660;10.200;2022-08-01T05:32:17;21.50;89.70
20337;DHT22;10326;53.660;10.200;2022-08-01T05:34:44;21.50;89.90
20337;DHT22;10326;53.660;10.200;2022-08-01T05:37:11;21.50;89.90
20337;DHT22;10326;53.660;10.200;2022-08-01T05:39:38;21.50;90.00
20337;DHT22;10326;53.660;10.200;2022-08-01T05:42:06;21.50;90.00
20337;DHT22;10326;53.660;10.200;2022-08-01T05:44:33;21.50;90.20
20337;DHT22;10326;53.660;10.200;2022-08-01T05:47:00;21.50;89.90
20337;DHT22;10326;53.660;10.200;2022-08-01T05:49:29;21.50;89.90
20337;DHT22;10326;53.660;10.200;2022-08-01T05:51:56;21.50;90.00
20337;DHT22;10326;53.660;10.200;2022-08-01T05:54:23;21.60;90.00
20337;DHT22;10326;53.660;10.200;2022-08-01T05:56:50;21.60;90.00
20337;DHT22;10326;53.660;10.200;2022-08-01T05:59:18;21.60;90.00
20337;DHT22;10326;53.660;10.200;2022-08-01T06:01:45;21.50;90.00
20337;DHT22;10326;53.660;10.200;2022-08-01T06:04:12;21.60;90.00
20337;DHT22;10326;53.660;10.200;2022-08-01T06:06:40;21.60;90.00
20337;DHT22;10326;53.660;10.200;2022-08-01T06:09:07;21.60;90.00
20337;DHT22;10326;53.660;10.200;2022-08-01T06:11:35;21.60;90.00
20337;DHT22;10326;53.660;10.200;2022-08-01T06:14:02;21.60;90.00
20337;DHT22;10326;53.660;10.200;2022-08-01T06:16:29;21.60;90.00
20337;DHT22;10326;53.660;10.200;2022-08-01T06:18:56;21.60;90.00
20337;DHT22;10326;53.660;10.200;2022-08-01T06:21:23;21.60;90.10
20337;DHT22;10326;53.660;10.200;2022-08-01T06:23:52;21.70;90.10
20337;DHT22;10326;53.660;10.200;2022-08-01T06:26:19;21.70;90.10
20337;DHT22;10326;53.660;10.200;2022-08-01T06:28:47;21.70;90.00
20337;DHT22;10326;53.660;10.200;2022-08-01T06:31:14;21.70;90.00
20337;DHT22;10326;53.660;10.200;2022-08-01T06:33:42;21.70;90.00
20337;DHT22;10326;53.660;10.200;2022-08-01T06:36:09;21.70;90.20
20337;DHT22;10326;53.660;10.200;2022-08-01T06:38:36;21.70;89.70
20337;DHT22;10326;53.660;10.200;2022-08-01T06:41:05;21.70;89.80
20337;DHT22;10326;53.660;10.200;2022-08-01T06:43:32;21.60;89.70
20337;DHT22;10326;53.660;10.200;2022-08-01T06:45:59;21.70;89.60
20337;DHT22;10326;53.660;10.200;2022-08-01T06:48:26;21.60;89.50
20337;DHT22;10326;53.660;10.200;2022-08-01T06:50:53;21.60;89.70
20337;DHT22;10326;53.660;10.200;2022-08-01T06:53:33;21.60;89.70
20337;DHT22;10326;53.660;10.200;2022-08-01T06:56:01;21.60;89.70
20337;DHT22;10326;53.660;10.200;2022-08-01T06:58:29;21.60;89.60
20337;DHT22;10326;53.660;10.200;2022-08-01T07:00:56;21.60;90.00
20337;DHT22;10326;53.660;10.200;2022-08-01T07:03:23;21.50;89.40
20337;DHT22;10326;53.660;10.200;2022-08-01T07:05:50;21.50;89.60
20337;DHT22;10326;53.660;10.200;2022-08-01T07:08:17;21.50;89.50
20337;DHT22;10326;53.660;10.200;2022-08-01T07:10:44;21.50;90.00
20337;DHT22;10326;53.660;10.200;2022-08-01T07:13:12;21.40;89.60
20337;DHT22;10326;53.660;10.200;2022-08-01T07:15:41;21.50;89.80
20337;DHT22;10326;53.660;10.200;2022-08-01T07:18:08;21.50;90.10
20337;DHT22;10326;53.660;10.200;2022-08-01T07:20:37;21.50;90.00
20337;DHT22;10326;53.660;10.200;2022-08-01T07:23:04;21.50;90.00
20337;DHT22;10326;53.660;10.200;2022-08-01T07:25:31;21.50;90.00
20337;DHT22;10326;53.660;10.200;2022-08-01T07:27:58;21.40;89.90
20337;DHT22;10326;53.660;10.200;2022-08-01T07:30:26;21.40;89.80
20337;DHT22;10326;53.660;10.200;2022-08-01T07:32:54;21.50;89.60
20337;DHT22;10326;53.660;10.200;2022-08-01T07:35:21;21.40;89.40
20337;DHT22;10326;53.660;10.200;2022-08-01T07:37:48;21.40;89.60
20337;DHT22;10326;53.660;10.200;2022-08-01T07:40:17;21.30;89.40
20337;DHT22;10326;53.660;10.200;2022-08-01T07:42:44;21.30;89.30
20337;DHT22;10326;53.660;10.200;2022-08-01T07:45:12;21.30;89.40
20337;DHT22;10326;53.660;10.200;2022-08-01T07:47:39;21.30;89.80
20337;DHT22;10326;53.660;10.200;2022-08-01T07:50:08;21.20;89.30
20337;DHT22;10326;53.660;10.200;2022-08-01T07:52:35;21.20;89.30
20337;DHT22;10326;53.660;10.200;2022-08-01T07:55:03;21.20;89.40
20337;DHT22;10326;53.660;10.200;2022-08-01T07:57:31;21.20;89.40
20337;DHT22;10326;53.660;10.200;2022-08-01T07:59:58;21.20;89.40
20337;DHT22;10326;53.660;10.200;2022-08-01T08:02:25;21.20;89.60
20337;DHT22;10326;53.660;10.200;2022-08-01T08:04:52;21.20;89.70
20337;DHT22;10326;53.660;10.200;2022-08-01T08:07:20;21.20;89.80
20337;DHT22;10326;53.660;10.200;2022-08-01T08:09:47;21.20;89.90
20337;DHT22;10326;53.660;10.200;2022-08-01T08:12:15;21.20;89.80
20337;DHT22;10326;53.660;10.200;2022-08-01T08:14:42;21.20;89.80
20337;DHT22;10326;53.660;10.200;2022-08-01T08:17:09;21.20;89.80
20337;DHT22;10326;53.660;10.200;2022-08-01T08:19:36;21.20;89.90
20337;DHT22;10326;53.660;10.200;2022-08-01T08:22:05;21.20;89.60
20337;DHT22;10326;53.660;10.200;2022-08-01T08:24:34;21.20;89.60
20337;DHT22;10326;53.660;10.200;2022-08-01T08:27:03;21.20;89.40
20337;DHT22;10326;53.660;10.200;2022-08-01T08:29:31;21.20;89.20
20337;DHT22;10326;53.660;10.200;2022-08-01T08:31:59;21.20;89.20
20337;DHT22;10326;53.660;10.200;2022-08-01T08:34:27;21.20;89.50
20337;DHT22;10326;53.660;10.200;2022-08-01T08:36:55;21.20;89.40
20337;DHT22;10326;53.660;10.200;2022-08-01T08:39:23;21.10;89.50
20337;DHT22;10326;53.660;10.200;2022-08-01T08:41:52;21.20;89.90
20337;DHT22;10326;53.660;10.200;2022-08-01T08:44:19;21.20;89.90
20337;DHT22;10326;53.660;10.200;2022-08-01T08:46:48;21.20;89.40
20337;DHT22;10326;53.660;10.200;2022-08-01T08:49:19;21.20;89.50
20337;DHT22;10326;53.660;10.200;2022-08-01T08:51:49;21.20;89.20
20337;DHT22;10326;53.660;10.200;2022-08-01T08:54:18;21.20;89.10
20337;DHT22;10326;53.660;10.200;2022-08-01T08:56:48;21.20;88.90
20337;DHT22;10326;53.660;10.200;2022-08-01T08:59:17;21.20;88.80
20337;DHT22;10326;53.660;10.200;2022-08-01T09:01:45;21.20;88.20
20337;DHT22;10326;53.660;10.200;2022-08-01T09:04:13;21.10;88.00
20337;DHT22;10326;53.660;10.200;2022-08-01T09:06:40;21.10;87.60
20337;DHT22;10326;53.660;10.200;2022-08-01T09:09:09;21.00;87.50
20337;DHT22;10326;53.660;10.200;2022-08-01T09:11:37;21.00;87.70
20337;DHT22;10326;53.660;10.200;2022-08-01T09:14:07;21.00;88.00
20337;DHT22;10326;53.660;10.200;2022-08-01T09:16:40;21.00;88.20
20337;DHT22;10326;53.660;10.200;2022-08-01T09:19:13;21.00;88.40
20337;DHT22;10326;53.660;10.200;2022-08-01T09:21:55;21.00;88.30
20337;DHT22;10326;53.660;10.200;2022-08-01T09:24:25;21.00;88.60
20337;DHT22;10326;53.660;10.200;2022-08-01T09:26:54;21.10;88.80
20337;DHT22;10326;53.660;10.200;2022-08-01T09:29:23;21.10;87.90
20337;DHT22;10326;53.660;10.200;2022-08-01T09:31:52;21.10;87.10
20337;DHT22;10326;53.660;10.200;2022-08-01T09:34:25;21.10;87.00
20337;DHT22;10326;53.660;10.200;2022-08-01T09:36:54;21.10;86.10
20337;DHT22;10326;53.660;10.200;2022-08-01T09:39:24;21.20;86.60
20337;DHT22;10326;53.660;10.200;2022-08-01T09:41:54;21.20;85.90
20337;DHT22;10326;53.660;10.200;2022-08-01T09:44:37;21.20;86.10
20337;DHT22;10326;53.660;10.200;2022-08-01T09:47:07;21.20;85.20
20337;DHT22;10326;53.660;10.200;2022-08-01T09:49:35;21.30;85.60
20337;DHT22;10326;53.660;10.200;2022-08-01T09:52:13;21.40;84.70
20337;DHT22;10326;53.660;10.200;2022-08-01T09:54:43;21.40;83.90
20337;DHT22;10326;53.660;10.200;2022-08-01T09:57:13;21.40;85.10
20337;DHT22;10326;53.660;10.200;2022-08-01T09:59:45;21.50;84.70
20337;DHT22;10326;53.660;10.200;2022-08-01T10:02:28;21.50;84.00
20337;DHT22;10326;53.660;10.200;2022-08-01T10:04:59;21.60;83.10
20337;DHT22;10326;53.660;10.200;2022-08-01T10:07:29;21.60;83.50
20337;DHT22;10326;53.660;10.200;2022-08-01T10:10:09;21.60;83.30
20337;DHT22;10326;53.660;10.200;2022-08-01T10:12:39;21.70;82.60
20337;DHT22;10326;53.660;10.200;2022-08-01T10:15:08;21.70;83.50
20337;DHT22;10326;53.660;10.200;2022-08-01T10:17:38;21.80;83.20
20337;DHT22;10326;53.660;10.200;2022-08-01T10:20:08;21.80;81.90
20337;DHT22;10326;53.660;10.200;2022-08-01T10:22:37;21.90;82.90
20337;DHT22;10326;53.660;10.200;2022-08-01T10:25:05;21.90;82.90
20337;DHT22;10326;53.660;10.200;2022-08-01T10:27:36;22.00;80.60
20337;DHT22;10326;53.660;10.200;2022-08-01T10:30:06;22.00;81.00
20337;DHT22;10326;53.660;10.200;2022-08-01T10:32:35;22.10;80.90
20337;DHT22;10326;53.660;10.200;2022-08-01T10:35:06;22.10;81.10
20337;DHT22;10326;53.660;10.200;2022-08-01T10:37:35;22.20;80.60
20337;DHT22;10326;53.660;10.200;2022-08-01T10:40:03;22.30;80.10
20337;DHT22;10326;53.660;10.200;2022-08-01T10:42:33;22.30;78.70
20337;DHT22;10326;53.660;10.200;2022-08-01T10:45:01;22.40;77.20
20337;DHT22;10326;53.660;10.200;2022-08-01T10:47:37;22.40;78.00
20337;DHT22;10326;53.660;10.200;2022-08-01T10:50:27;22.50;77.80
20337;DHT22;10326;53.660;10.200;2022-08-01T10:53:13;22.60;77.50
20337;DHT22;10326;53.660;10.200;2022-08-01T10:55:51;22.60;75.80
20337;DHT22;10326;53.660;10.200;2022-08-01T10:58:21;22.60;76.10
20337;DHT22;10326;53.660;10.200;2022-08-01T11:00:58;22.70;76.60
20337;DHT22;10326;53.660;10.200;2022-08-01T11:03:41;22.80;77.30
20337;DHT22;10326;53.660;10.200;2022-08-01T11:06:16;22.90;77.70
20337;DHT22;10326;53.660;10.200;2022-08-01T11:08:51;22.90;75.80
20337;DHT22;10326;53.660;10.200;2022-08-01T11:11:20;23.00;75.80
20337;DHT22;10326;53.660;10.200;2022-08-01T11:14:01;23.10;75.80
20337;DHT22;10326;53.660;10.200;2022-08-01T11:16:33;23.20;74.20
20337;DHT22;10326;53.660;10.200;2022-08-01T11:19:04;23.30;74.50
20337;DHT22;10326;53.660;10.200;2022-08-01T11:22:00;23.30;74.80
20337;DHT22;10326;53.660;10.200;2022-08-01T11:24:55;23.40;72.70
20337;DHT22;10326;53.660;10.200;2022-08-01T11:27:28;23.40;71.30
20337;DHT22;10326;53.660;10.200;2022-08-01T11:30:24;23.50;73.30
20337;DHT22;10326;53.660;10.200;2022-08-01T11:32:54;23.50;72.80
20337;DHT22;10326;53.660;10.200;2022-08-01T11:35:23;23.60;73.50
20337;DHT22;10326;53.660;10.200;2022-08-01T11:37:54;23.60;74.00
20337;DHT22;10326;53.660;10.200;2022-08-01T11:40:23;23.70;72.40
20337;DHT22;10326;53.660;10.200;2022-08-01T11:43:16;23.70;71.30
20337;DHT22;10326;53.660;10.200;2022-08-01T11:45:49;23.80;67.50
20337;DHT22;10326;53.660;10.200;2022-08-01T11:48:21;23.80;69.80
20337;DHT22;10326;53.660;10.200;2022-08-01T11:50:51;23.80;67.20
20337;DHT22;10326;53.660;10.200;2022-08-01T11:53:24;23.80;68.30
20337;DHT22;10326;53.660;10.200;2022-08-01T11:55:55;23.90;67.80
20337;DHT22;10326;53.660;10.200;2022-08-01T11:58:25;23.90;69.00
20337;DHT22;10326;53.660;10.200;2022-08-01T12:00:54;23.90;68.90
20337;DHT22;10326;53.660;10.200;2022-08-01T12:03:26;24.00;68.40
20337;DHT22;10326;53.660;10.200;2022-08-01T12:05:55;24.00;68.00
20337;DHT22;10326;53.660;10.200;2022-08-01T12:08:29;24.10;67.80
20337;DHT22;10326;53.660;10.200;2022-08-01T12:11:00;24.10;66.90
20337;DHT22;10326;53.660;10.200;2022-08-01T12:13:30;24.10;67.10
20337;DHT22;10326;53.660;10.200;2022-08-01T12:16:11;24.10;66.00
20337;DHT22;10326;53.660;10.200;2022-08-01T12:18:41;24.10;66.70
20337;DHT22;10326;53.660;10.200;2022-08-01T12:21:09;24.10;65.60
20337;DHT22;10326;53.660;10.200;2022-08-01T12:23:37;24.10;66.10
20337;DHT22;10326;53.660;10.200;2022-08-01T12:26:04;24.10;64.70
20337;DHT22;10326;53.660;10.200;2022-08-01T12:28:38;24.20;64.90
20337;DHT22;10326;53.660;10.200;2022-08-01T12:31:06;24.20;64.50
20337;DHT22;10326;53.660;10.200;2022-08-01T12:33:33;24.30;65.10
20337;DHT22;10326;53.660;10.200;2022-08-01T12:36:00;24.30;64.40
20337;DHT22;10326;53.660;10.200;2022-08-01T12:38:27;24.40;65.20
20337;DHT22;10326;53.660;10.200;2022-08-01T12:40:59;24.40;65.80
20337;DHT22;10326;53.660;10.200;2022-08-01T12:43:27;24.50;64.20
20337;DHT22;10326;53.660;10.200;2022-08-01T12:46:00;24.60;64.00
20337;DHT22;10326;53.660;10.200;2022-08-01T12:48:28;24.60;64.20
20337;DHT22;10326;53.660;10.200;2022-08-01T12:50:58;24.60;64.20
20337;DHT22;10326;53.660;10.200;2022-08-01T12:53:26;24.60;64.50
20337;DHT22;10326;53.660;10.200;2022-08-01T12:55:55;24.60;64.10
20337;DHT22;10326;53.660;10.200;2022-08-01T12:58:24;24.60;63.00
20337;DHT22;10326;53.660;10.200;2022-08-01T13:01:03;24.70;62.70
20337;DHT22;10326;53.660;10.200;2022-08-01T13:03:31;24.60;60.70
20337;DHT22;10326;53.660;10.200;2022-08-01T13:05:59;24.60;61.30
20337;DHT22;10326;53.660;10.200;2022-08-01T13:08:30;24.70;61.90
20337;DHT22;10326;53.660;10.200;2022-08-01T13:11:03;24.70;62.10
20337;DHT22;10326;53.660;10.200;2022-08-01T13:13:40;24.70;61.40
20337;DHT22;10326;53.660;10.200;2022-08-01T13:16:09;24.80;61.20
20337;DHT22;10326;53.660;10.200;2022-08-01T13:18:36;24.90;61.70
20337;DHT22;10326;53.660;10.200;2022-08-01T13:21:08;24.90;60.10
20337;DHT22;10326;53.660;10.200;2022-08-01T13:23:37;24.90;59.80
20337;DHT22;10326;53.660;10.200;2022-08-01T13:26:05;25.00;59.30
20337;DHT22;10326;53.660;10.200;2022-08-01T13:28:32;25.00;58.90
20337;DHT22;10326;53.660;10.200;2022-08-01T13:31:05;25.00;58.90
20337;DHT22;10326;53.660;10.200;2022-08-01T13:33:44;25.00;58.00
20337;DHT22;10326;53.660;10.200;2022-08-01T13:36:12;25.00;55.80
20337;DHT22;10326;53.660;10.200;2022-08-01T13:38:41;25.00;58.30
20337;DHT22;10326;53.660;10.200;2022-08-01T13:41:26;25.00;58.80
20337;DHT22;10326;53.660;10.200;2022-08-01T13:43:54;25.00;58.60
20337;DHT22;10326;53.660;10.200;2022-08-01T13:46:22;25.10;58.10
20337;DHT22;10326;53.660;10.200;2022-08-01T13:48:49;25.10;58.30
20337;DHT22;10326;53.660;10.200;2022-08-01T13:51:17;25.10;57.90
20337;DHT22;10326;53.660;10.200;2022-08-01T13:53:44;25.10;57.80
20337;DHT22;10326;53.660;10.200;2022-08-01T13:56:11;25.10;57.60
20337;DHT22;10326;53.660;10.200;2022-08-01T13:58:38;25.10;57.20
20337;DHT22;10326;53.660;10.200;2022-08-01T14:01:06;25.10;57.60
20337;DHT22;10326;53.660;10.200;2022-08-01T14:03:34;25.00;57.40
20337;DHT22;10326;53.660;10.200;2022-08-01T14:06:01;25.00;57.50
20337;DHT22;10326;53.660;10.200;2022-08-01T14:08:28;25.00;56.80
20337;DHT22;10326;53.660;10.200;2022-08-01T14:10:56;25.00;56.30
20337;DHT22;10326;53.660;10.200;2022-08-01T14:13:24;25.00;56.70
20337;DHT22;10326;53.660;10.200;2022-08-01T14:15:52;24.90;56.70
20337;DHT22;10326;53.660;10.200;2022-08-01T14:18:19;24.90;56.30
20337;DHT22;10326;53.660;10.200;2022-08-01T14:20:47;24.90;56.50
20337;DHT22;10326;53.660;10.200;2022-08-01T14:23:14;24.80;56.40
20337;DHT22;10326;53.660;10.200;2022-08-01T14:25:42;24.80;56.40
20337;DHT22;10326;53.660;10.200;2022-08-01T14:28:10;24.80;56.00
20337;DHT22;10326;53.660;10.200;2022-08-01T14:30:37;24.80;56.00
20337;DHT22;10326;53.660;10.200;2022-08-01T14:33:04;24.80;56.40
20337;DHT22;10326;53.660;10.200;2022-08-01T14:35:31;24.80;55.60
20337;DHT22;10326;53.660;10.200;2022-08-01T14:37:59;24.80;55.50
20337;DHT22;10326;53.660;10.200;2022-08-01T14:40:27;24.70;55.50
20337;DHT22;10326;53.660;10.200;2022-08-01T14:42:54;24.70;55.70
20337;DHT22;10326;53.660;10.200;2022-08-01T14:45:21;24.70;55.40
20337;DHT22;10326;53.660;10.200;2022-08-01T14:47:48;24.70;56.00
20337;DHT22;10326;53.660;10.200;2022-08-01T14:50:15;24.60;55.20
20337;DHT22;10326;53.660;10.200;2022-08-01T14:52:43;24.60;55.60
20337;DHT22;10326;53.660;10.200;2022-08-01T14:55:12;24.60;55.70
20337;DHT22;10326;53.660;10.200;2022-08-01T14:57:39;24.60;56.10
20337;DHT22;10326;53.660;10.200;2022-08-01T15:00:09;24.60;55.90
20337;DHT22;10326;53.660;10.200;2022-08-01T15:02:38;24.60;55.50
20337;DHT22;10326;53.660;10.200;2022-08-01T15:05:06;24.60;55.50
20337;DHT22;10326;53.660;10.200;2022-08-01T15:07:34;24.60;55.20
20337;DHT22;10326;53.660;10.200;2022-08-01T15:10:01;24.60;55.10
20337;DHT22;10326;53.660;10.200;2022-08-01T15:12:30;24.50;55.20
20337;DHT22;10326;53.660;10.200;2022-08-01T15:14:57;24.50;55.00
20337;DHT22;10326;53.660;10.200;2022-08-01T15:17:26;24.50;55.40
20337;DHT22;10326;53.660;10.200;2022-08-01T15:19:55;24.40;55.40
20337;DHT22;10326;53.660;10.200;2022-08-01T15:22:24;24.40;55.30
20337;DHT22;10326;53.660;10.200;2022-08-01T15:24:53;24.40;55.50
20337;DHT22;10326;53.660;10.200;2022-08-01T15:27:21;24.30;55.50
20337;DHT22;10326;53.660;10.200;2022-08-01T15:29:50;24.40;55.50
20337;DHT22;10326;53.660;10.200;2022-08-01T15:32:17;24.30;55.20